sensor_id;sensor_type;location;lat;lon;timestamp;P1;durP1;ratioP1;P2;durP2;ratioP2
12861;SDS011;6499;66.348;14.134;2023-07-30T00:00:30;2.60;;;1.67;;
12861;SDS011;6499;66.348;14.134;2023-07-30T00:02:56;2.07;;;1.87;;
12861;SDS011;6499;66.348;14.134;2023-07-30T00:05:23;2.10;;;1.90;;
12861;SDS011;6499;66.348;14.134;2023-07-30T00:07:49;2.33;;;1.47;;
12861;SDS011;6499;66.348;14.134;2023-07-30T00:10:16;1.60;;;1.40;;
12861;SDS011;6499;66.348;14.134;2023-07-30T00:12:44;3.03;;;1.70;;
12861;SDS011;6499;66.348;14.134;2023-07-30T00:15:10;1.70;;;1.60;;
12861;SDS011;6499;66.348;14.134;2023-07-30T00:17:38;1.70;;;1.60;;
12861;SDS011;6499;66.348;14.134;2023-07-30T00:20:05;2.53;;;1.77;;
12861;SDS011;6499;66.348;14.134;2023-07-30T00:22:31;2.87;;;1.90;;
12861;SDS011;6499;66.348;14.134;2023-07-30T00:24:58;2.90;;;1.67;;
12861;SDS011;6499;66.348;14.134;2023-07-30T00:27:25;3.07;;;1.60;;
12861;SDS011;6499;66.348;14.134;2023-07-30T00:29:53;2.40;;;1.83;;
12861;SDS011;6499;66.348;14.134;2023-07-30T00:32:19;2.23;;;1.80;;
12861;SDS011;6499;66.348;14.134;2023-07-30T00:34:46;1.97;;;1.83;;
12861;SDS011;6499;66.348;14.134;2023-07-30T00:37:12;2.87;;;1.90;;
12861;SDS011;6499;66.348;14.134;2023-07-30T00:39:39;2.50;;;1.87;;
12861;SDS011;6499;66.348;14.134;2023-07-30T00:42:06;2.53;;;1.90;;
12861;SDS011;6499;66.348;14.134;2023-07-30T00:44:32;2.40;;;2.00;;
12861;SDS011;6499;66.348;14.134;2023-07-30T00:47:00;1.73;;;1.57;;
12861;SDS011;6499;66.348;14.134;2023-07-30T00:49:27;2.87;;;2.03;;
12861;SDS011;6499;66.348;14.134;2023-07-30T00:51:53;1.60;;;1.50;;
12861;SDS011;6499;66.348;14.134;2023-07-30T00:54:21;2.70;;;2.10;;
12861;SDS011;6499;66.348;14.134;2023-07-30T00:56:48;3.53;;;1.80;;
12861;SDS011;6499;66.348;14.134;2023-07-30T00:59:16;2.10;;;1.90;;
12861;SDS011;6499;66.348;14.134;2023-07-30T01:01:42;2.43;;;1.93;;
12861;SDS011;6499;66.348;14.134;2023-07-30T01:04:11;2.27;;;1.77;;
12861;SDS011;6499;66.348;14.134;2023-07-30T01:09:16;3.23;;;2.23;;
12861;SDS011;6499;66.348;14.134;2023-07-30T01:11:42;2.70;;;2.10;;
12861;SDS011;6499;66.348;14.134;2023-07-30T01:14:09;2.50;;;2.30;;
12861;SDS011;6499;66.348;14.134;2023-07-30T01:16:36;2.53;;;1.90;;
12861;SDS011;6499;66.348;14.134;2023-07-30T01:19:03;3.40;;;2.20;;
12861;SDS011;6499;66.348;14.134;2023-07-30T01:21:32;3.10;;;1.97;;
12861;SDS011;6499;66.348;14.134;2023-07-30T01:23:58;2.33;;;2.10;;
12861;SDS011;6499;66.348;14.134;2023-07-30T01:26:27;2.30;;;2.10;;
12861;SDS011;6499;66.348;14.134;2023-07-30T01:28:54;2.10;;;1.80;;
12861;SDS011;6499;66.348;14.134;2023-07-30T01:31:20;2.83;;;2.20;;
12861;SDS011;6499;66.348;14.134;2023-07-30T01:33:51;2.87;;;2.23;;
12861;SDS011;6499;66.348;14.134;2023-07-30T01:36:18;2.37;;;2.17;;
12861;SDS011;6499;66.348;14.134;2023-07-30T01:38:47;2.13;;;1.80;;
12861;SDS011;6499;66.348;14.134;2023-07-30T01:41:14;2.30;;;2.03;;
12861;SDS011;6499;66.348;14.134;2023-07-30T01:43:40;2.43;;;2.07;;
12861;SDS011;6499;66.348;14.134;2023-07-30T01:46:07;3.13;;;2.20;;
12861;SDS011;6499;66.348;14.134;2023-07-30T01:48:33;2.20;;;1.90;;
12861;SDS011;6499;66.348;14.134;2023-07-30T01:51:00;1.80;;;1.70;;
12861;SDS011;6499;66.348;14.134;2023-07-30T01:53:26;2.20;;;2.00;;
12861;SDS011;6499;66.348;14.134;2023-07-30T01:55:54;2.00;;;1.90;;
12861;SDS011;6499;66.348;14.134;2023-07-30T01:58:21;3.27;;;2.23;;
12861;SDS011;6499;66.348;14.134;2023-07-30T02:00:47;2.47;;;2.20;;
12861;SDS011;6499;66.348;14.134;2023-07-30T02:03:14;2.00;;;1.80;;
12861;SDS011;6499;66.348;14.134;2023-07-30T02:05:41;2.30;;;2.10;;
12861;SDS011;6499;66.348;14.134;2023-07-30T02:08:07;2.43;;;1.90;;
12861;SDS011;6499;66.348;14.134;2023-07-30T02:10:34;2.30;;;1.90;;
12861;SDS011;6499;66.348;14.134;2023-07-30T02:13:02;3.60;;;2.20;;
12861;SDS011;6499;66.348;14.134;2023-07-30T02:15:28;3.07;;;2.20;;
12861;SDS011;6499;66.348;14.134;2023-07-30T02:17:55;2.53;;;2.00;;
12861;SDS011;6499;66.348;14.134;2023-07-30T02:20:21;3.50;;;2.00;;
12861;SDS011;6499;66.348;14.134;2023-07-30T02:22:48;2.70;;;1.93;;
12861;SDS011;6499;66.348;14.134;2023-07-30T02:25:14;2.50;;;2.07;;
12861;SDS011;6499;66.348;14.134;2023-07-30T02:27:41;4.03;;;2.40;;
12861;SDS011;6499;66.348;14.134;2023-07-30T02:30:09;2.87;;;2.57;;
12861;SDS011;6499;66.348;14.134;2023-07-30T02:32:36;3.33;;;2.03;;
12861;SDS011;6499;66.348;14.134;2023-07-30T02:35:02;3.63;;;2.20;;
12861;SDS011;6499;66.348;14.134;2023-07-30T02:37:32;3.53;;;2.07;;
12861;SDS011;6499;66.348;14.134;2023-07-30T02:39:58;2.77;;;1.90;;
12861;SDS011;6499;66.348;14.134;2023-07-30T02:42:27;2.13;;;1.93;;
12861;SDS011;6499;66.348;14.134;2023-07-30T02:44:53;2.37;;;2.17;;
12861;SDS011;6499;66.348;14.134;2023-07-30T02:47:21;3.07;;;2.30;;
12861;SDS011;6499;66.348;14.134;2023-07-30T02:49:48;2.27;;;2.07;;
12861;SDS011;6499;66.348;14.134;2023-07-30T02:52:14;2.77;;;2.23;;
12861;SDS011;6499;66.348;14.134;2023-07-30T02:54:41;1.93;;;1.80;;
12861;SDS011;6499;66.348;14.134;2023-07-30T02:57:07;3.33;;;2.07;;
12861;SDS011;6499;66.348;14.134;2023-07-30T02:59:34;3.13;;;2.00;;
12861;SDS011;6499;66.348;14.134;2023-07-30T03:02:02;3.93;;;1.87;;
12861;SDS011;6499;66.348;14.134;2023-07-30T03:04:31;4.57;;;1.90;;
12861;SDS011;6499;66.348;14.134;2023-07-30T03:06:58;2.73;;;2.10;;
12861;SDS011;6499;66.348;14.134;2023-07-30T03:09:24;4.03;;;1.93;;
12861;SDS011;6499;66.348;14.134;2023-07-30T03:11:52;3.20;;;2.00;;
12861;SDS011;6499;66.348;14.134;2023-07-30T03:14:18;3.20;;;2.37;;
12861;SDS011;6499;66.348;14.134;2023-07-30T03:16:45;2.40;;;2.20;;
12861;SDS011;6499;66.348;14.134;2023-07-30T03:19:12;2.63;;;2.20;;
12861;SDS011;6499;66.348;14.134;2023-07-30T03:21:40;3.63;;;2.00;;
12861;SDS011;6499;66.348;14.134;2023-07-30T03:24:06;3.13;;;2.10;;
12861;SDS011;6499;66.348;14.134;2023-07-30T03:26:33;3.63;;;2.23;;
12861;SDS011;6499;66.348;14.134;2023-07-30T03:28:59;2.30;;;2.10;;
12861;SDS011;6499;66.348;14.134;2023-07-30T03:31:26;2.63;;;2.30;;
12861;SDS011;6499;66.348;14.134;2023-07-30T03:33:53;2.00;;;1.80;;
12861;SDS011;6499;66.348;14.134;2023-07-30T03:36:20;2.03;;;1.93;;
12861;SDS011;6499;66.348;14.134;2023-07-30T03:38:47;3.00;;;2.20;;
12861;SDS011;6499;66.348;14.134;2023-07-30T03:41:14;2.70;;;2.03;;
12861;SDS011;6499;66.348;14.134;2023-07-30T03:43:41;2.17;;;1.97;;
12861;SDS011;6499;66.348;14.134;2023-07-30T03:46:07;2.57;;;2.10;;
12861;SDS011;6499;66.348;14.134;2023-07-30T03:48:34;2.57;;;2.37;;
12861;SDS011;6499;66.348;14.134;2023-07-30T03:51:00;3.67;;;2.30;;
12861;SDS011;6499;66.348;14.134;2023-07-30T03:53:27;2.33;;;2.00;;
12861;SDS011;6499;66.348;14.134;2023-07-30T03:55:55;2.00;;;1.90;;
12861;SDS011;6499;66.348;14.134;2023-07-30T03:58:22;3.00;;;2.27;;
12861;SDS011;6499;66.348;14.134;2023-07-30T04:00:48;3.60;;;2.23;;
12861;SDS011;6499;66.348;14.134;2023-07-30T04:03:15;2.63;;;2.20;;
12861;SDS011;6499;66.348;14.134;2023-07-30T04:05:41;2.97;;;2.30;;
12861;SDS011;6499;66.348;14.134;2023-07-30T04:08:08;2.50;;;2.30;;
12861;SDS011;6499;66.348;14.134;2023-07-30T04:10:34;2.93;;;2.40;;
12861;SDS011;6499;66.348;14.134;2023-07-30T04:13:02;2.40;;;2.20;;
12861;SDS011;6499;66.348;14.134;2023-07-30T04:15:29;3.33;;;2.53;;
12861;SDS011;6499;66.348;14.134;2023-07-30T04:17:55;2.43;;;2.23;;
12861;SDS011;6499;66.348;14.134;2023-07-30T04:20:22;2.70;;;2.30;;
12861;SDS011;6499;66.348;14.134;2023-07-30T04:22:47;2.30;;;2.10;;
12861;SDS011;6499;66.348;14.134;2023-07-30T04:25:14;2.43;;;2.20;;
12861;SDS011;6499;66.348;14.134;2023-07-30T04:27:40;3.57;;;2.40;;
12861;SDS011;6499;66.348;14.134;2023-07-30T04:30:09;2.60;;;2.23;;
12861;SDS011;6499;66.348;14.134;2023-07-30T04:32:35;3.43;;;2.50;;
12861;SDS011;6499;66.348;14.134;2023-07-30T04:35:02;3.00;;;2.27;;
12861;SDS011;6499;66.348;14.134;2023-07-30T04:37:29;2.43;;;2.13;;
12861;SDS011;6499;66.348;14.134;2023-07-30T04:39:56;3.37;;;2.37;;
12861;SDS011;6499;66.348;14.134;2023-07-30T04:42:22;2.73;;;2.10;;
12861;SDS011;6499;66.348;14.134;2023-07-30T04:44:49;2.50;;;2.30;;
12861;SDS011;6499;66.348;14.134;2023-07-30T04:47:17;2.50;;;2.30;;
12861;SDS011;6499;66.348;14.134;2023-07-30T04:49:43;3.33;;;2.13;;
12861;SDS011;6499;66.348;14.134;2023-07-30T04:52:10;2.43;;;2.00;;
12861;SDS011;6499;66.348;14.134;2023-07-30T04:54:36;2.40;;;2.20;;
12861;SDS011;6499;66.348;14.134;2023-07-30T04:57:03;2.60;;;2.40;;
12861;SDS011;6499;66.348;14.134;2023-07-30T04:59:30;2.50;;;2.30;;
12861;SDS011;6499;66.348;14.134;2023-07-30T05:01:58;4.10;;;2.30;;
12861;SDS011;6499;66.348;14.134;2023-07-30T05:04:26;3.50;;;2.20;;
12861;SDS011;6499;66.348;14.134;2023-07-30T05:06:53;3.27;;;2.30;;
12861;SDS011;6499;66.348;14.134;2023-07-30T05:09:19;3.03;;;2.07;;
12861;SDS011;6499;66.348;14.134;2023-07-30T05:11:46;2.30;;;2.10;;
12861;SDS011;6499;66.348;14.134;2023-07-30T05:14:13;2.57;;;2.10;;
12861;SDS011;6499;66.348;14.134;2023-07-30T05:16:39;2.70;;;1.90;;
12861;SDS011;6499;66.348;14.134;2023-07-30T05:19:06;2.40;;;2.20;;
12861;SDS011;6499;66.348;14.134;2023-07-30T05:21:34;1.93;;;1.83;;
12861;SDS011;6499;66.348;14.134;2023-07-30T05:24:01;2.97;;;2.40;;
12861;SDS011;6499;66.348;14.134;2023-07-30T05:26:28;2.20;;;2.00;;
12861;SDS011;6499;66.348;14.134;2023-07-30T05:28:54;2.77;;;2.50;;
12861;SDS011;6499;66.348;14.134;2023-07-30T05:31:21;2.57;;;2.10;;
12861;SDS011;6499;66.348;14.134;2023-07-30T05:33:48;2.63;;;2.00;;
12861;SDS011;6499;66.348;14.134;2023-07-30T05:36:14;2.77;;;2.23;;
12861;SDS011;6499;66.348;14.134;2023-07-30T05:38:42;2.47;;;2.27;;
12861;SDS011;6499;66.348;14.134;2023-07-30T05:41:08;2.60;;;2.23;;
12861;SDS011;6499;66.348;14.134;2023-07-30T05:43:35;2.20;;;2.00;;
12861;SDS011;6499;66.348;14.134;2023-07-30T05:46:01;2.70;;;2.17;;
12861;SDS011;6499;66.348;14.134;2023-07-30T05:48:28;2.80;;;2.03;;
12861;SDS011;6499;66.348;14.134;2023-07-30T05:50:55;3.20;;;1.90;;
12861;SDS011;6499;66.348;14.134;2023-07-30T05:53:21;3.23;;;2.03;;
12861;SDS011;6499;66.348;14.134;2023-07-30T05:55:49;3.00;;;2.47;;
12861;SDS011;6499;66.348;14.134;2023-07-30T05:58:16;2.57;;;2.30;;
12861;SDS011;6499;66.348;14.134;2023-07-30T06:00:42;2.33;;;2.07;;
12861;SDS011;6499;66.348;14.134;2023-07-30T06:03:09;3.30;;;2.20;;
12861;SDS011;6499;66.348;14.134;2023-07-30T06:05:38;2.23;;;2.03;;
12861;SDS011;6499;66.348;14.134;2023-07-30T06:08:05;2.63;;;2.43;;
12861;SDS011;6499;66.348;14.134;2023-07-30T06:10:33;2.50;;;2.30;;
12861;SDS011;6499;66.348;14.134;2023-07-30T06:13:01;4.07;;;2.23;;
12861;SDS011;6499;66.348;14.134;2023-07-30T06:15:28;2.80;;;2.60;;
12861;SDS011;6499;66.348;14.134;2023-07-30T06:17:54;2.03;;;1.93;;
12861;SDS011;6499;66.348;14.134;2023-07-30T06:20:21;2.10;;;2.00;;
12861;SDS011;6499;66.348;14.134;2023-07-30T06:22:47;2.57;;;2.37;;
12861;SDS011;6499;66.348;14.134;2023-07-30T06:25:14;2.60;;;2.40;;
12861;SDS011;6499;66.348;14.134;2023-07-30T06:27:40;3.33;;;2.70;;
12861;SDS011;6499;66.348;14.134;2023-07-30T06:30:08;4.90;;;2.80;;
12861;SDS011;6499;66.348;14.134;2023-07-30T06:32:36;3.13;;;2.83;;
12861;SDS011;6499;66.348;14.134;2023-07-30T06:35:03;2.93;;;2.70;;
12861;SDS011;6499;66.348;14.134;2023-07-30T06:37:30;3.13;;;2.73;;
12861;SDS011;6499;66.348;14.134;2023-07-30T06:39:56;3.97;;;2.87;;
12861;SDS011;6499;66.348;14.134;2023-07-30T06:42:23;3.30;;;3.00;;
12861;SDS011;6499;66.348;14.134;2023-07-30T06:44:49;3.00;;;2.80;;
12861;SDS011;6499;66.348;14.134;2023-07-30T06:47:17;3.03;;;2.83;;
12861;SDS011;6499;66.348;14.134;2023-07-30T06:49:43;3.53;;;2.97;;
12861;SDS011;6499;66.348;14.134;2023-07-30T06:52:10;4.17;;;3.20;;
12861;SDS011;6499;66.348;14.134;2023-07-30T06:54:36;2.97;;;2.77;;
12861;SDS011;6499;66.348;14.134;2023-07-30T06:57:03;2.90;;;2.70;;
12861;SDS011;6499;66.348;14.134;2023-07-30T06:59:30;3.63;;;3.13;;
12861;SDS011;6499;66.348;14.134;2023-07-30T07:01:56;3.70;;;3.37;;
12861;SDS011;6499;66.348;14.134;2023-07-30T07:04:25;4.13;;;3.73;;
12861;SDS011;6499;66.348;14.134;2023-07-30T07:06:52;3.90;;;3.47;;
12861;SDS011;6499;66.348;14.134;2023-07-30T07:09:18;3.50;;;3.20;;
12861;SDS011;6499;66.348;14.134;2023-07-30T07:11:45;3.60;;;3.30;;
12861;SDS011;6499;66.348;14.134;2023-07-30T07:14:11;3.53;;;3.23;;
12861;SDS011;6499;66.348;14.134;2023-07-30T07:16:38;3.50;;;3.17;;
12861;SDS011;6499;66.348;14.134;2023-07-30T07:19:05;3.77;;;3.47;;
12861;SDS011;6499;66.348;14.134;2023-07-30T07:21:32;3.20;;;2.90;;
12861;SDS011;6499;66.348;14.134;2023-07-30T07:23:59;4.60;;;3.23;;
12861;SDS011;6499;66.348;14.134;2023-07-30T07:26:26;3.50;;;3.20;;
12861;SDS011;6499;66.348;14.134;2023-07-30T07:28:52;3.33;;;3.10;;
12861;SDS011;6499;66.348;14.134;2023-07-30T07:31:19;3.47;;;3.17;;
12861;SDS011;6499;66.348;14.134;2023-07-30T07:33:45;3.70;;;3.40;;
12861;SDS011;6499;66.348;14.134;2023-07-30T07:36:12;3.60;;;3.40;;
12861;SDS011;6499;66.348;14.134;2023-07-30T07:38:40;3.80;;;3.50;;
12861;SDS011;6499;66.348;14.134;2023-07-30T07:41:07;3.13;;;2.93;;
12861;SDS011;6499;66.348;14.134;2023-07-30T07:43:33;3.50;;;3.03;;
12861;SDS011;6499;66.348;14.134;2023-07-30T07:46:00;3.53;;;3.23;;
12861;SDS011;6499;66.348;14.134;2023-07-30T07:48:26;3.60;;;3.30;;
12861;SDS011;6499;66.348;14.134;2023-07-30T07:50:53;4.43;;;4.03;;
12861;SDS011;6499;66.348;14.134;2023-07-30T07:53:19;5.23;;;4.83;;
12861;SDS011;6499;66.348;14.134;2023-07-30T07:55:47;5.17;;;4.77;;
12861;SDS011;6499;66.348;14.134;2023-07-30T07:58:14;5.03;;;4.63;;
12861;SDS011;6499;66.348;14.134;2023-07-30T08:00:40;4.87;;;4.47;;
12861;SDS011;6499;66.348;14.134;2023-07-30T08:03:07;4.63;;;4.33;;
12861;SDS011;6499;66.348;14.134;2023-07-30T08:05:33;5.13;;;4.70;;
12861;SDS011;6499;66.348;14.134;2023-07-30T08:08:00;5.23;;;4.80;;
12861;SDS011;6499;66.348;14.134;2023-07-30T08:10:27;5.30;;;4.87;;
12861;SDS011;6499;66.348;14.134;2023-07-30T08:12:55;4.87;;;4.37;;
12861;SDS011;6499;66.348;14.134;2023-07-30T08:15:21;5.57;;;5.17;;
12861;SDS011;6499;66.348;14.134;2023-07-30T08:17:48;4.97;;;4.57;;
12861;SDS011;6499;66.348;14.134;2023-07-30T08:20:14;5.00;;;4.57;;
12861;SDS011;6499;66.348;14.134;2023-07-30T08:22:41;5.10;;;4.70;;
12861;SDS011;6499;66.348;14.134;2023-07-30T08:25:13;4.63;;;4.33;;
12861;SDS011;6499;66.348;14.134;2023-07-30T08:27:39;5.40;;;4.90;;
12861;SDS011;6499;66.348;14.134;2023-07-30T08:30:08;5.17;;;4.77;;
12861;SDS011;6499;66.348;14.134;2023-07-30T08:32:34;5.53;;;5.13;;
12861;SDS011;6499;66.348;14.134;2023-07-30T08:35:01;5.13;;;4.63;;
12861;SDS011;6499;66.348;14.134;2023-07-30T08:37:28;5.33;;;4.93;;
12861;SDS011;6499;66.348;14.134;2023-07-30T08:39:54;6.07;;;5.57;;
12861;SDS011;6499;66.348;14.134;2023-07-30T08:42:21;5.10;;;4.70;;
12861;SDS011;6499;66.348;14.134;2023-07-30T08:44:47;5.53;;;5.13;;
12861;SDS011;6499;66.348;14.134;2023-07-30T08:47:15;5.90;;;5.40;;
12861;SDS011;6499;66.348;14.134;2023-07-30T08:49:42;5.70;;;5.30;;
12861;SDS011;6499;66.348;14.134;2023-07-30T08:52:09;5.17;;;4.77;;
12861;SDS011;6499;66.348;14.134;2023-07-30T08:54:36;5.10;;;4.70;;
12861;SDS011;6499;66.348;14.134;2023-07-30T08:57:03;5.27;;;4.87;;
12861;SDS011;6499;66.348;14.134;2023-07-30T08:59:30;4.63;;;4.23;;
12861;SDS011;6499;66.348;14.134;2023-07-30T09:01:57;4.87;;;4.47;;
12861;SDS011;6499;66.348;14.134;2023-07-30T09:04:25;4.57;;;4.20;;
12861;SDS011;6499;66.348;14.134;2023-07-30T09:06:52;4.43;;;4.13;;
12861;SDS011;6499;66.348;14.134;2023-07-30T09:09:19;5.30;;;4.90;;
12861;SDS011;6499;66.348;14.134;2023-07-30T09:11:50;4.77;;;4.47;;
12861;SDS011;6499;66.348;14.134;2023-07-30T09:14:18;5.07;;;4.57;;
12861;SDS011;6499;66.348;14.134;2023-07-30T09:16:45;4.90;;;4.53;;
12861;SDS011;6499;66.348;14.134;2023-07-30T09:19:15;4.80;;;4.50;;
12861;SDS011;6499;66.348;14.134;2023-07-30T09:21:43;4.77;;;4.37;;
12861;SDS011;6499;66.348;14.134;2023-07-30T09:24:10;4.80;;;4.47;;
12861;SDS011;6499;66.348;14.134;2023-07-30T09:26:40;4.87;;;4.50;;
12861;SDS011;6499;66.348;14.134;2023-07-30T09:29:08;5.37;;;4.90;;
12861;SDS011;6499;66.348;14.134;2023-07-30T09:31:43;5.20;;;4.80;;
12861;SDS011;6499;66.348;14.134;2023-07-30T09:34:09;4.83;;;4.40;;
12861;SDS011;6499;66.348;14.134;2023-07-30T09:36:35;4.60;;;4.20;;
12861;SDS011;6499;66.348;14.134;2023-07-30T09:39:03;4.67;;;4.27;;
12861;SDS011;6499;66.348;14.134;2023-07-30T09:41:30;4.50;;;4.20;;
12861;SDS011;6499;66.348;14.134;2023-07-30T09:43:57;4.47;;;4.07;;
12861;SDS011;6499;66.348;14.134;2023-07-30T09:46:24;4.30;;;3.90;;
12861;SDS011;6499;66.348;14.134;2023-07-30T09:48:57;4.37;;;3.83;;
12861;SDS011;6499;66.348;14.134;2023-07-30T09:51:24;4.03;;;3.80;;
12861;SDS011;6499;66.348;14.134;2023-07-30T09:53:50;4.00;;;3.70;;
12861;SDS011;6499;66.348;14.134;2023-07-30T09:56:18;4.13;;;3.83;;
12861;SDS011;6499;66.348;14.134;2023-07-30T09:58:45;4.17;;;3.87;;
12861;SDS011;6499;66.348;14.134;2023-07-30T10:01:11;4.13;;;3.83;;
12861;SDS011;6499;66.348;14.134;2023-07-30T10:03:38;4.30;;;4.00;;
12861;SDS011;6499;66.348;14.134;2023-07-30T10:06:05;4.33;;;4.03;;
12861;SDS011;6499;66.348;14.134;2023-07-30T10:08:34;5.07;;;4.33;;
12861;SDS011;6499;66.348;14.134;2023-07-30T10:11:03;4.27;;;3.87;;
12861;SDS011;6499;66.348;14.134;2023-07-30T10:13:31;4.50;;;4.20;;
12861;SDS011;6499;66.348;14.134;2023-07-30T10:15:58;4.80;;;4.30;;
12861;SDS011;6499;66.348;14.134;2023-07-30T10:18:26;4.17;;;3.73;;
12861;SDS011;6499;66.348;14.134;2023-07-30T10:20:59;4.40;;;4.00;;
12861;SDS011;6499;66.348;14.134;2023-07-30T10:23:27;4.30;;;4.00;;
12861;SDS011;6499;66.348;14.134;2023-07-30T10:25:54;4.23;;;3.93;;
12861;SDS011;6499;66.348;14.134;2023-07-30T10:28:32;4.40;;;4.10;;
12861;SDS011;6499;66.348;14.134;2023-07-30T10:30:59;4.10;;;3.70;;
12861;SDS011;6499;66.348;14.134;2023-07-30T10:33:43;4.07;;;3.77;;
12861;SDS011;6499;66.348;14.134;2023-07-30T10:36:09;4.53;;;4.23;;
12861;SDS011;6499;66.348;14.134;2023-07-30T10:38:36;4.00;;;3.70;;
12861;SDS011;6499;66.348;14.134;2023-07-30T10:41:03;4.40;;;4.10;;
12861;SDS011;6499;66.348;14.134;2023-07-30T10:43:33;5.23;;;4.83;;
12861;SDS011;6499;66.348;14.134;2023-07-30T10:46:00;5.23;;;4.73;;
12861;SDS011;6499;66.348;14.134;2023-07-30T10:48:33;4.57;;;4.27;;
12861;SDS011;6499;66.348;14.134;2023-07-30T10:51:00;5.03;;;4.70;;
12861;SDS011;6499;66.348;14.134;2023-07-30T10:53:27;4.90;;;4.60;;
12861;SDS011;6499;66.348;14.134;2023-07-30T10:55:57;4.73;;;4.37;;
12861;SDS011;6499;66.348;14.134;2023-07-30T10:58:25;4.63;;;4.33;;
12861;SDS011;6499;66.348;14.134;2023-07-30T11:00:54;6.77;;;4.43;;
12861;SDS011;6499;66.348;14.134;2023-07-30T11:03:20;4.57;;;4.27;;
12861;SDS011;6499;66.348;14.134;2023-07-30T11:05:47;4.33;;;4.03;;
12861;SDS011;6499;66.348;14.134;2023-07-30T11:08:14;4.60;;;4.30;;
12861;SDS011;6499;66.348;14.134;2023-07-30T11:10:41;4.50;;;4.20;;
12861;SDS011;6499;66.348;14.134;2023-07-30T11:13:08;4.00;;;3.70;;
12861;SDS011;6499;66.348;14.134;2023-07-30T11:15:40;4.50;;;4.20;;
12861;SDS011;6499;66.348;14.134;2023-07-30T11:18:08;4.53;;;4.23;;
12861;SDS011;6499;66.348;14.134;2023-07-30T11:20:34;4.60;;;4.30;;
12861;SDS011;6499;66.348;14.134;2023-07-30T11:23:02;4.37;;;4.07;;
12861;SDS011;6499;66.348;14.134;2023-07-30T11:25:28;4.23;;;3.93;;
12861;SDS011;6499;66.348;14.134;2023-07-30T11:27:55;4.33;;;4.03;;
12861;SDS011;6499;66.348;14.134;2023-07-30T11:30:21;3.70;;;3.50;;
12861;SDS011;6499;66.348;14.134;2023-07-30T11:32:48;4.20;;;3.80;;
12861;SDS011;6499;66.348;14.134;2023-07-30T11:35:16;4.13;;;3.83;;
12861;SDS011;6499;66.348;14.134;2023-07-30T11:37:43;4.00;;;3.70;;
12861;SDS011;6499;66.348;14.134;2023-07-30T11:40:10;4.30;;;4.00;;
12861;SDS011;6499;66.348;14.134;2023-07-30T11:42:37;4.00;;;3.77;;
12861;SDS011;6499;66.348;14.134;2023-07-30T11:45:17;4.30;;;4.00;;
12861;SDS011;6499;66.348;14.134;2023-07-30T11:47:44;5.07;;;4.13;;
12861;SDS011;6499;66.348;14.134;2023-07-30T11:50:10;4.50;;;4.20;;
12861;SDS011;6499;66.348;14.134;2023-07-30T11:52:51;4.10;;;3.80;;
12861;SDS011;6499;66.348;14.134;2023-07-30T11:55:18;3.80;;;3.50;;
12861;SDS011;6499;66.348;14.134;2023-07-30T11:57:45;3.90;;;3.60;;
12861;SDS011;6499;66.348;14.134;2023-07-30T12:00:14;3.97;;;3.67;;
12861;SDS011;6499;66.348;14.134;2023-07-30T12:02:41;3.73;;;3.40;;
12861;SDS011;6499;66.348;14.134;2023-07-30T12:05:09;3.17;;;2.97;;
12861;SDS011;6499;66.348;14.134;2023-07-30T12:07:42;3.60;;;3.30;;
12861;SDS011;6499;66.348;14.134;2023-07-30T12:10:10;3.67;;;3.37;;
12861;SDS011;6499;66.348;14.134;2023-07-30T12:12:43;4.00;;;3.70;;
12861;SDS011;6499;66.348;14.134;2023-07-30T12:15:10;3.93;;;3.73;;
12861;SDS011;6499;66.348;14.134;2023-07-30T12:17:37;3.80;;;3.60;;
12861;SDS011;6499;66.348;14.134;2023-07-30T12:20:04;3.70;;;3.40;;
12861;SDS011;6499;66.348;14.134;2023-07-30T12:22:31;2.90;;;2.70;;
12861;SDS011;6499;66.348;14.134;2023-07-30T12:24:59;3.27;;;3.07;;
12861;SDS011;6499;66.348;14.134;2023-07-30T12:27:27;3.37;;;3.07;;
12861;SDS011;6499;66.348;14.134;2023-07-30T12:29:53;4.13;;;3.83;;
12861;SDS011;6499;66.348;14.134;2023-07-30T12:32:20;3.63;;;3.43;;
12861;SDS011;6499;66.348;14.134;2023-07-30T12:34:47;3.90;;;3.70;;
12861;SDS011;6499;66.348;14.134;2023-07-30T12:37:13;3.63;;;3.43;;
12861;SDS011;6499;66.348;14.134;2023-07-30T12:39:40;3.23;;;3.03;;
12861;SDS011;6499;66.348;14.134;2023-07-30T12:42:06;4.00;;;3.70;;
12861;SDS011;6499;66.348;14.134;2023-07-30T12:44:34;3.20;;;3.00;;
12861;SDS011;6499;66.348;14.134;2023-07-30T12:47:01;2.97;;;2.77;;
12861;SDS011;6499;66.348;14.134;2023-07-30T12:49:27;2.87;;;2.67;;
12861;SDS011;6499;66.348;14.134;2023-07-30T12:51:54;3.70;;;3.50;;
12861;SDS011;6499;66.348;14.134;2023-07-30T12:54:21;3.07;;;2.87;;
12861;SDS011;6499;66.348;14.134;2023-07-30T12:56:47;3.47;;;3.27;;
12861;SDS011;6499;66.348;14.134;2023-07-30T12:59:14;3.10;;;2.90;;
12861;SDS011;6499;66.348;14.134;2023-07-30T13:01:41;3.00;;;2.70;;
12861;SDS011;6499;66.348;14.134;2023-07-30T13:04:08;2.37;;;2.27;;
12861;SDS011;6499;66.348;14.134;2023-07-30T13:06:35;2.70;;;2.50;;
12861;SDS011;6499;66.348;14.134;2023-07-30T13:09:01;2.90;;;2.70;;
12861;SDS011;6499;66.348;14.134;2023-07-30T13:11:28;2.50;;;2.30;;
12861;SDS011;6499;66.348;14.134;2023-07-30T13:13:55;3.87;;;2.53;;
12861;SDS011;6499;66.348;14.134;2023-07-30T13:16:22;2.50;;;2.40;;
12861;SDS011;6499;66.348;14.134;2023-07-30T13:18:49;2.70;;;2.50;;
12861;SDS011;6499;66.348;14.134;2023-07-30T13:21:17;2.93;;;2.73;;
12861;SDS011;6499;66.348;14.134;2023-07-30T13:23:44;2.90;;;2.70;;
12861;SDS011;6499;66.348;14.134;2023-07-30T13:26:11;3.07;;;2.87;;
12861;SDS011;6499;66.348;14.134;2023-07-30T13:28:38;2.53;;;2.33;;
12861;SDS011;6499;66.348;14.134;2023-07-30T13:31:04;2.47;;;2.37;;
12861;SDS011;6499;66.348;14.134;2023-07-30T13:33:33;3.20;;;3.00;;
12861;SDS011;6499;66.348;14.134;2023-07-30T13:36:01;2.80;;;2.60;;
12861;SDS011;6499;66.348;14.134;2023-07-30T13:38:29;2.50;;;2.37;;
12861;SDS011;6499;66.348;14.134;2023-07-30T13:40:55;2.87;;;2.67;;
12861;SDS011;6499;66.348;14.134;2023-07-30T13:43:22;3.00;;;2.80;;
12861;SDS011;6499;66.348;14.134;2023-07-30T13:45:50;3.20;;;3.00;;
12861;SDS011;6499;66.348;14.134;2023-07-30T13:48:17;3.40;;;3.10;;
12861;SDS011;6499;66.348;14.134;2023-07-30T13:50:44;3.63;;;3.23;;
12861;SDS011;6499;66.348;14.134;2023-07-30T13:53:12;3.43;;;3.23;;
12861;SDS011;6499;66.348;14.134;2023-07-30T13:55:39;3.10;;;2.90;;
12861;SDS011;6499;66.348;14.134;2023-07-30T13:58:05;3.33;;;3.13;;
12861;SDS011;6499;66.348;14.134;2023-07-30T14:00:32;3.43;;;3.23;;
12861;SDS011;6499;66.348;14.134;2023-07-30T14:02:58;3.60;;;3.40;;
12861;SDS011;6499;66.348;14.134;2023-07-30T14:05:25;3.30;;;3.10;;
12861;SDS011;6499;66.348;14.134;2023-07-30T14:07:53;4.00;;;3.73;;
12861;SDS011;6499;66.348;14.134;2023-07-30T14:10:23;3.90;;;3.60;;
12861;SDS011;6499;66.348;14.134;2023-07-30T14:12:49;4.00;;;3.73;;
12861;SDS011;6499;66.348;14.134;2023-07-30T14:15:19;3.93;;;3.63;;
12861;SDS011;6499;66.348;14.134;2023-07-30T14:17:45;3.70;;;3.50;;
12861;SDS011;6499;66.348;14.134;2023-07-30T14:20:12;4.03;;;3.73;;
12861;SDS011;6499;66.348;14.134;2023-07-30T14:22:38;4.10;;;3.80;;
12861;SDS011;6499;66.348;14.134;2023-07-30T14:25:05;4.17;;;3.87;;
12861;SDS011;6499;66.348;14.134;2023-07-30T14:27:33;4.20;;;3.97;;
12861;SDS011;6499;66.348;14.134;2023-07-30T14:30:00;3.73;;;3.53;;
12861;SDS011;6499;66.348;14.134;2023-07-30T14:32:30;4.20;;;3.90;;
12861;SDS011;6499;66.348;14.134;2023-07-30T14:34:56;4.27;;;3.97;;
12861;SDS011;6499;66.348;14.134;2023-07-30T14:37:23;4.50;;;4.20;;
12861;SDS011;6499;66.348;14.134;2023-07-30T14:39:50;4.10;;;3.90;;
12861;SDS011;6499;66.348;14.134;2023-07-30T14:42:16;4.90;;;4.60;;
12861;SDS011;6499;66.348;14.134;2023-07-30T14:44:44;4.30;;;4.00;;
12861;SDS011;6499;66.348;14.134;2023-07-30T14:47:11;4.73;;;4.43;;
12861;SDS011;6499;66.348;14.134;2023-07-30T14:49:38;4.87;;;4.47;;